Llantwit Fardre, United Kingdom
Current Conditions -  °F | °C
As of 2:20 PM on Friday 19 Dec 2014 (Local Time) from EGFF Reporting Station
Clear Clear  
Wind Chill: 42°   Ceiling: Unl
Heat Index: 48°   Visibility: 6mi
Dew Point: 39°   Wind: 18mph
Humidity: 71%   Direction: 280°W
Pressure: 30.09"   Gusts: NA
Location:  51.55°N, 3.33°W
Report Text: EGFF 191420Z AUTO 28016KT 9999 NCD 09/04 Q1019
Loading
Personal Weather Stations






























Interactive Weather Map New forecast layout! Learn more

10-Day Weather Forecast

Advertisements
Track Severe Weather on mobile